createdAt,value
2023-04-27T00:02:46.276Z,36.91
2023-04-27T00:08:08.045Z,36.80
2023-04-27T00:13:30.051Z,37.43
2023-04-27T00:18:52.054Z,37.54
2023-04-27T00:24:14.015Z,37.28
2023-04-27T00:29:36.039Z,37.11
2023-04-27T00:34:58.023Z,36.86
2023-04-27T00:40:20.080Z,37.21
2023-04-27T00:45:42.046Z,37.58
2023-04-27T00:51:04.042Z,37.90
2023-04-27T00:56:26.019Z,37.97
2023-04-27T01:01:48.109Z,38.20
2023-04-27T01:07:17.040Z,38.58
2023-04-27T01:12:39.036Z,39.16
2023-04-27T01:18:01.064Z,39.45
2023-04-27T01:23:23.013Z,39.60
2023-04-27T01:28:45.049Z,39.60
2023-04-27T01:34:08.039Z,39.33
2023-04-27T01:39:30.007Z,38.00
2023-04-27T01:44:52.008Z,37.88
2023-04-27T01:50:14.019Z,37.73
2023-04-27T01:55:42.998Z,37.81
2023-04-27T02:01:05.010Z,37.96
2023-04-27T02:06:27.006Z,38.69
2023-04-27T02:11:49.006Z,38.88
2023-04-27T02:17:11.022Z,38.02
2023-04-27T02:22:34.024Z,37.97
2023-04-27T02:27:56.002Z,38.54
2023-04-27T02:33:18.014Z,38.53
2023-04-27T02:38:40.010Z,38.75
2023-04-27T02:44:02.016Z,38.80
2023-04-27T02:49:24.007Z,39.26
2023-04-27T02:54:45.978Z,39.01
2023-04-27T03:00:07.995Z,38.88
2023-04-27T03:05:39.994Z,38.40
2023-04-27T03:11:01.985Z,38.01
2023-04-27T03:16:25.006Z,38.09
2023-04-27T03:21:47.006Z,37.94
2023-04-27T03:27:09.974Z,37.93
2023-04-27T03:32:32.019Z,38.05
2023-04-27T03:37:53.972Z,37.97
2023-04-27T03:43:15.980Z,38.19
2023-04-27T03:48:37.998Z,38.27
2023-04-27T03:53:59.973Z,38.04
2023-04-27T03:59:21.961Z,38.27
2023-04-27T04:04:44.125Z,38.69
2023-04-27T04:10:06.015Z,38.38
2023-04-27T04:15:35.034Z,38.64
2023-04-27T04:20:57.003Z,38.62
2023-04-27T04:26:19.961Z,38.11
2023-04-27T04:31:42.044Z,38.80
2023-04-27T04:37:06.964Z,38.73
2023-04-27T04:42:28.967Z,38.72
2023-04-27T04:47:51.026Z,39.01
2023-04-27T04:53:12.968Z,39.08
2023-04-27T04:58:34.974Z,39.15
2023-04-27T05:03:58.108Z,39.37
2023-04-27T05:09:19.936Z,39.44
2023-04-27T05:14:41.945Z,39.28
2023-04-27T05:20:03.963Z,39.18
2023-04-27T05:25:25.965Z,39.68
2023-04-27T05:30:47.946Z,39.76
2023-04-27T05:36:09.940Z,40.09
2023-04-27T05:41:31.939Z,40.33
2023-04-27T05:46:53.943Z,40.18
2023-04-27T05:52:15.952Z,40.35
2023-04-27T05:57:37.951Z,40.54
2023-04-27T06:03:00.050Z,40.71
2023-04-27T06:08:21.952Z,40.75
2023-04-27T06:13:44.936Z,40.67
2023-04-27T06:19:07.044Z,40.72
2023-04-27T06:24:28.967Z,40.80
2023-04-27T06:29:50.968Z,40.89
2023-04-27T06:35:12.926Z,41.08
2023-04-27T06:40:34.998Z,41.23
2023-04-27T06:45:56.976Z,41.18
2023-04-27T06:51:18.948Z,41.33
2023-04-27T06:56:40.923Z,41.16
2023-04-27T07:02:02.973Z,40.70
2023-04-27T07:07:31.961Z,39.93
2023-04-27T07:12:53.937Z,40.04
2023-04-27T07:18:15.968Z,40.19
2023-04-27T07:23:37.954Z,40.19
2023-04-27T07:29:00.320Z,40.17
2023-04-27T07:34:22.950Z,40.48
2023-04-27T07:39:44.930Z,39.96
2023-04-27T07:45:07.949Z,39.80
2023-04-27T07:50:31.966Z,40.18
2023-04-27T07:55:53.955Z,39.75
2023-04-27T08:01:15.910Z,39.23
2023-04-27T08:06:38.332Z,39.44
2023-04-27T08:12:00.904Z,38.74
2023-04-27T08:17:24.890Z,38.64
2023-04-27T08:22:46.896Z,38.24
2023-04-27T08:28:08.903Z,37.97
2023-04-27T08:33:30.888Z,37.66
2023-04-27T08:38:52.899Z,37.63
2023-04-27T08:44:14.902Z,37.41
2023-04-27T08:49:36.880Z,37.39
2023-04-27T08:54:58.901Z,36.45
2023-04-27T09:00:21.992Z,36.18
2023-04-27T09:05:52.713Z,35.84
2023-04-27T09:11:42.892Z,35.98
2023-04-27T09:17:11.882Z,35.75
2023-04-27T09:22:33.890Z,35.39
2023-04-27T09:27:58.029Z,35.39
2023-04-27T09:33:19.905Z,35.20
2023-04-27T09:38:42.869Z,34.92
2023-04-27T09:44:04.863Z,34.85
2023-04-27T09:49:27.880Z,34.45
2023-04-27T09:54:49.880Z,34.36
2023-04-27T10:00:47.931Z,33.58
2023-04-27T10:06:39.881Z,33.83
2023-04-27T10:12:01.881Z,33.86
2023-04-27T10:17:23.875Z,33.75
2023-04-27T10:22:54.877Z,33.78
2023-04-27T10:28:17.865Z,33.50
2023-04-27T10:33:49.877Z,33.05
2023-04-27T10:39:12.044Z,33.05
2023-04-27T10:44:34.881Z,33.46
2023-04-27T10:49:56.859Z,33.40
2023-04-27T10:55:22.862Z,33.09
2023-04-27T11:00:54.853Z,32.32
2023-04-27T11:06:16.959Z,31.95
2023-04-27T11:11:39.891Z,31.56
2023-04-27T11:17:01.943Z,30.72
2023-04-27T11:22:23.900Z,30.82
2023-04-27T11:27:46.880Z,30.75
2023-04-27T11:33:08.966Z,30.70
2023-04-27T11:38:30.940Z,31.46
2023-04-27T11:43:56.893Z,31.43
2023-04-27T11:49:18.892Z,31.04
2023-04-27T11:54:43.874Z,30.91
2023-04-27T12:00:07.876Z,30.68
2023-04-27T12:05:30.133Z,30.80
2023-04-27T12:10:51.879Z,30.82
2023-04-27T12:16:13.940Z,29.86
2023-04-27T12:21:35.886Z,29.77
2023-04-27T12:26:57.881Z,29.47
2023-04-27T12:32:19.857Z,29.42
2023-04-27T12:37:41.869Z,29.50
2023-04-27T12:43:03.878Z,29.31
2023-04-27T12:48:25.889Z,29.52
2023-04-27T12:53:47.859Z,29.69
2023-04-27T12:59:09.868Z,28.81
2023-04-27T13:04:32.050Z,29.29
2023-04-27T13:09:53.872Z,29.05
2023-04-27T13:15:15.871Z,29.31
2023-04-27T13:20:37.934Z,29.20
2023-04-27T13:25:59.836Z,29.20
2023-04-27T13:31:21.865Z,28.66
2023-04-27T13:36:43.859Z,28.54
2023-04-27T13:42:05.853Z,28.56
2023-04-27T13:47:27.981Z,28.78
2023-04-27T13:52:50.883Z,28.78
2023-04-27T13:58:13.100Z,29.00
2023-04-27T14:03:34.963Z,29.07
2023-04-27T14:09:03.885Z,28.82
2023-04-27T14:14:25.834Z,28.71
2023-04-27T14:19:47.859Z,27.82
2023-04-27T14:25:09.862Z,27.87
2023-04-27T14:30:31.849Z,27.67
2023-04-27T14:35:53.857Z,27.93
2023-04-27T14:41:15.850Z,27.48
2023-04-27T14:46:37.897Z,27.42
2023-04-27T14:51:59.848Z,27.67
2023-04-27T14:57:21.840Z,27.62
2023-04-27T15:02:43.901Z,27.29
2023-04-27T15:08:05.845Z,27.45
2023-04-27T15:13:27.871Z,27.42
2023-04-27T15:18:49.875Z,27.40
2023-04-27T15:24:11.873Z,26.97
2023-04-27T15:29:33.835Z,27.08
2023-04-27T15:34:56.833Z,27.09
2023-04-27T15:40:18.835Z,26.67
2023-04-27T15:45:41.874Z,26.56
2023-04-27T15:51:03.839Z,26.84
2023-04-27T15:56:25.894Z,26.54
2023-04-27T16:01:47.841Z,26.57
2023-04-27T16:07:09.833Z,26.49
2023-04-27T16:12:31.810Z,26.44
2023-04-27T16:17:53.880Z,26.37
2023-04-27T16:23:15.830Z,26.70
2023-04-27T16:28:38.808Z,26.73
2023-04-27T16:34:00.807Z,26.69
2023-04-27T16:39:22.820Z,26.82
2023-04-27T16:44:44.824Z,26.67
2023-04-27T16:50:06.812Z,26.76
2023-04-27T16:55:28.819Z,26.61
2023-04-27T17:00:50.829Z,26.75
2023-04-27T17:06:12.812Z,26.95
2023-04-27T17:11:34.805Z,27.05
2023-04-27T17:16:56.808Z,26.83
2023-04-27T17:22:19.821Z,26.72
2023-04-27T17:27:41.820Z,26.84
2023-04-27T17:33:03.864Z,26.46
2023-04-27T17:38:25.835Z,26.82
2023-04-27T17:43:47.867Z,26.57
2023-04-27T17:49:09.806Z,26.50
2023-04-27T17:54:31.822Z,26.70
2023-04-27T17:59:53.819Z,27.07
2023-04-27T18:05:15.811Z,27.40
2023-04-27T18:10:37.808Z,28.17
2023-04-27T18:15:59.841Z,28.81
2023-04-27T18:21:21.816Z,28.82
2023-04-27T18:26:43.821Z,28.68
2023-04-27T18:32:07.852Z,28.72
2023-04-27T18:37:29.806Z,28.59
2023-04-27T18:42:51.817Z,28.69
2023-04-27T18:48:13.827Z,28.62
2023-04-27T18:53:35.824Z,28.68
2023-04-27T18:58:57.828Z,28.85
2023-04-27T19:04:19.917Z,28.94
2023-04-27T19:09:41.806Z,29.23
2023-04-27T19:15:03.835Z,29.17
2023-04-27T19:20:25.798Z,29.39
2023-04-27T19:25:47.818Z,29.52
2023-04-27T19:31:09.911Z,29.54
2023-04-27T19:36:32.791Z,29.86
2023-04-27T19:41:54.795Z,30.06
2023-04-27T19:47:19.797Z,30.11
2023-04-27T19:52:41.799Z,30.52
2023-04-27T19:58:03.815Z,30.58
2023-04-27T20:03:25.966Z,30.67
2023-04-27T20:08:54.779Z,30.62
2023-04-27T20:14:17.125Z,30.69
2023-04-27T20:19:38.791Z,30.98
2023-04-27T20:25:00.788Z,30.85
2023-04-27T20:30:22.794Z,31.14
2023-04-27T20:35:44.777Z,31.13
2023-04-27T20:41:07.778Z,31.46
2023-04-27T20:46:29.777Z,31.44
2023-04-27T20:51:51.790Z,31.87
2023-04-27T20:57:19.802Z,31.88
2023-04-27T21:02:41.875Z,32.16
2023-04-27T21:08:03.765Z,32.29
2023-04-27T21:13:40.764Z,32.34
2023-04-27T21:19:02.790Z,32.50
2023-04-27T21:24:25.791Z,32.63
2023-04-27T21:29:47.856Z,32.77
2023-04-27T21:35:09.794Z,32.85
2023-04-27T21:40:31.784Z,32.95
2023-04-27T21:45:53.785Z,33.00
2023-04-27T21:51:15.854Z,32.99
2023-04-27T21:56:37.782Z,33.13
2023-04-27T22:01:59.892Z,33.21
2023-04-27T22:07:21.753Z,33.59
2023-04-27T22:12:43.752Z,33.75
2023-04-27T22:18:05.877Z,33.91
2023-04-27T22:23:27.779Z,34.16
2023-04-27T22:28:49.763Z,34.38
2023-04-27T22:34:11.806Z,34.18
2023-04-27T22:39:33.756Z,34.49
2023-04-27T22:44:55.752Z,34.60
2023-04-27T22:50:17.756Z,34.58
2023-04-27T22:55:39.766Z,34.64
2023-04-27T23:01:01.786Z,35.04
2023-04-27T23:06:23.764Z,35.06
2023-04-27T23:11:46.741Z,35.19
2023-04-27T23:17:08.777Z,35.30
2023-04-27T23:22:30.737Z,35.36
2023-04-27T23:27:53.006Z,35.50
2023-04-27T23:33:14.759Z,35.44
2023-04-27T23:38:36.766Z,35.52
2023-04-27T23:43:58.728Z,35.79
2023-04-27T23:49:20.741Z,35.93
2023-04-27T23:54:45.744Z,36.09
